Time;durP1;ratioP1;P1;durP2;ratioP2;P2;SDS_P1;SDS_P2;PMS_P1;PMS_P2;Temp;Humidity;BMP_temperature;BMP_pressure;BME280_temperature;BME280_humidity;BME280_pressure;Samples;Min_cycle;Max_cycle;Signal;HPM_P1;HPM_P2
2022/04/10 00:01:23;;;;;;;22.83;3.25;;;3.70;99.90;;;;;;5100283;27;20395;-74
2022/04/10 00:03:49;;;;;;;12.20;2.75;;;3.70;99.90;;;;;;5117406;27;20036;-74
2022/04/10 00:06:15;;;;;;;9.82;2.60;;;3.70;99.90;;;;;;5100084;27;20039;-74
2022/04/10 00:08:40;;;;;;;17.70;2.40;;;3.70;99.90;;;;;;5117150;27;20078;-74
2022/04/10 00:11:06;;;;;;;11.13;2.20;;;3.60;99.90;;;;;;5117362;27;20040;-74
2022/04/10 00:13:32;;;;;;;10.27;2.67;;;3.60;99.90;;;;;;5083227;27;20479;-75
2022/04/10 00:15:57;;;;;;;11.57;2.72;;;3.60;99.90;;;;;;5083474;27;20043;-74
2022/04/10 00:18:23;;;;;;;17.60;3.15;;;3.60;99.90;;;;;;5116645;27;20071;-74
2022/04/10 00:20:49;;;;;;;11.77;2.42;;;3.60;99.90;;;;;;5117046;27;20047;-74
2022/04/10 00:23:14;;;;;;;11.18;2.67;;;3.50;99.90;;;;;;5099588;27;20043;-74
2022/04/10 00:25:40;;;;;;;9.50;2.25;;;3.50;99.90;;;;;;5100116;27;20046;-74
2022/04/10 00:28:08;;;;;;;12.23;3.13;;;3.50;99.90;;;;;;5117132;27;20445;-74
2022/04/10 00:30:33;;;;;;;12.50;2.50;;;3.50;99.90;;;;;;5116728;27;20043;-74
2022/04/10 00:33:00;;;;;;;12.80;2.72;;;3.50;99.90;;;;;;5117104;27;20127;-74
2022/04/10 00:35:25;;;;;;;15.55;3.15;;;3.50;99.90;;;;;;5116454;27;20051;-74
2022/04/10 00:37:51;;;;;;;14.52;3.00;;;3.50;99.90;;;;;;5116710;27;20070;-74
2022/04/10 00:40:17;;;;;;;17.55;2.75;;;3.50;99.90;;;;;;5116102;27;20460;-74
2022/04/10 00:42:47;;;;;;;11.30;2.85;;;3.40;99.90;;;;;;5099661;27;20050;-75
2022/04/10 00:45:13;;;;;;;;;;;3.50;99.90;;;;;;5116880;27;20075;-75
2022/04/10 00:47:39;;;;;;;18.77;2.92;;;3.40;99.90;;;;;;5116551;27;19919;-74
2022/04/10 00:50:07;;;;;;;16.52;2.80;;;3.40;99.90;;;;;;5116478;27;20051;-74
2022/04/10 00:52:33;;;;;;;13.40;2.63;;;3.40;99.90;;;;;;5134242;27;20136;-73
2022/04/10 00:54:59;;;;;;;12.40;3.22;;;3.50;99.90;;;;;;5099773;27;20051;-74
2022/04/10 00:57:24;;;;;;;12.55;2.60;;;3.40;99.90;;;;;;5115918;27;20134;-75
2022/04/10 00:59:50;;;;;;;12.45;2.85;;;3.40;99.90;;;;;;5099505;27;20031;-74
2022/04/10 01:02:16;;;;;;;16.17;2.50;;;3.40;99.90;;;;;;5082198;27;20093;-74
2022/04/10 01:04:41;;;;;;;13.82;3.30;;;3.40;99.90;;;;;;5099414;27;20039;-74
2022/04/10 01:07:07;;;;;;;16.50;2.65;;;3.40;99.90;;;;;;5099391;27;20429;-74
2022/04/10 01:09:33;;;;;;;11.20;2.15;;;3.40;99.90;;;;;;5099028;27;20134;-74
2022/04/10 01:11:59;;;;;;;16.48;3.10;;;3.40;99.90;;;;;;5098919;27;20498;-74
2022/04/10 01:14:25;;;;;;;16.08;3.10;;;3.30;99.90;;;;;;5098837;27;20462;-74
2022/04/10 01:16:51;;;;;;;15.82;3.22;;;3.30;99.90;;;;;;5099363;27;20074;-74
2022/04/10 01:19:17;;;;;;;10.43;3.03;;;3.40;99.90;;;;;;5115978;27;20042;-73
2022/04/10 01:21:44;;;;;;;16.08;2.50;;;3.40;99.90;;;;;;5082360;27;20416;-74
2022/04/10 01:24:13;;;;;;;15.90;2.22;;;3.30;99.90;;;;;;5099155;27;20046;-74
2022/04/10 01:26:39;;;;;;;12.63;2.42;;;3.30;99.90;;;;;;5098474;27;20051;-74
2022/04/10 01:29:09;;;;;;;19.85;3.03;;;3.20;99.90;;;;;;5082166;27;20043;-74
2022/04/10 01:31:36;;;;;;;11.40;2.47;;;3.20;99.90;;;;;;5115837;27;20092;-74
2022/04/10 01:34:05;;;;;;;15.75;3.15;;;3.20;99.90;;;;;;5099047;27;20281;-75
2022/04/10 01:36:30;;;;;;;12.50;2.55;;;3.20;99.90;;;;;;5098535;27;20043;-74
2022/04/10 01:38:57;;;;;;;10.98;2.80;;;3.20;99.90;;;;;;5081621;27;20066;-73
2022/04/10 01:41:26;;;;;;;11.57;2.70;;;3.20;99.90;;;;;;5133671;27;20391;-74
2022/04/10 01:43:53;;;;;;;10.57;2.20;;;3.20;99.90;;;;;;5115822;27;20043;-74
2022/04/10 01:46:19;;;;;;;15.15;2.53;;;3.10;99.90;;;;;;5082046;27;20056;-74
2022/04/10 01:48:45;;;;;;;11.35;2.53;;;3.10;99.90;;;;;;5081322;27;20058;-73
2022/04/10 01:51:11;;;;;;;10.27;2.40;;;3.10;99.90;;;;;;5098945;28;20039;-74
2022/04/10 01:53:36;;;;;;;18.10;2.95;;;3.10;99.90;;;;;;5098381;28;20043;-74
2022/04/10 01:56:03;;;;;;;13.80;3.08;;;3.10;99.90;;;;;;5133735;27;20047;-74
2022/04/10 01:58:29;;;;;;;12.55;2.83;;;3.10;99.90;;;;;;5114891;28;20043;-74
2022/04/10 02:00:55;;;;;;;12.43;2.53;;;3.10;99.90;;;;;;5098183;28;20043;-74
2022/04/10 02:03:20;;;;;;;11.13;2.35;;;3.10;99.90;;;;;;5098429;28;20046;-73
2022/04/10 02:05:46;;;;;;;12.77;2.40;;;3.00;99.90;;;;;;5098186;28;20044;-74
2022/04/10 02:08:13;;;;;;;8.63;2.50;;;3.00;99.90;;;;;;5115529;28;20042;-73
2022/04/10 02:10:39;;;;;;;13.57;2.63;;;3.00;99.90;;;;;;5097601;28;20043;-73
2022/04/10 02:13:07;;;;;;;14.43;2.55;;;3.20;99.90;;;;;;5098273;28;20051;-74
2022/04/10 02:15:37;;;;;;;14.80;2.85;;;3.10;99.90;;;;;;5098252;28;20139;-74
2022/04/10 02:18:03;;;;;;;12.60;2.95;;;3.00;99.90;;;;;;5098789;28;20088;-74
2022/04/10 02:20:29;;;;;;;15.30;2.92;;;3.00;99.90;;;;;;5133141;28;20051;-74
2022/04/10 02:22:55;;;;;;;11.02;2.72;;;3.10;99.90;;;;;;5133496;28;20047;-74
2022/04/10 02:25:20;;;;;;;13.25;3.33;;;3.00;99.90;;;;;;5115295;28;20047;-73
2022/04/10 02:27:46;;;;;;;15.90;2.65;;;3.10;99.90;;;;;;5114843;28;20114;-74
2022/04/10 02:30:12;;;;;;;9.60;2.40;;;3.20;99.90;;;;;;5098113;28;20043;-74
2022/04/10 02:32:41;;;;;;;17.08;3.25;;;3.10;99.90;;;;;;5114818;28;20083;-74
2022/04/10 02:35:08;;;;;;;15.18;3.00;;;3.20;99.90;;;;;;5115300;28;20051;-74
2022/04/10 02:37:34;;;;;;;14.10;2.80;;;3.30;99.90;;;;;;5114619;28;20054;-74
2022/04/10 02:40:00;;;;;;;12.38;2.30;;;3.30;99.90;;;;;;5097897;28;20112;-74
2022/04/10 02:42:27;;;;;;;13.02;2.25;;;3.40;99.90;;;;;;5097997;28;20461;-74
2022/04/10 02:44:53;;;;;;;9.02;2.15;;;3.40;99.90;;;;;;5098440;28;20095;-74
2022/04/10 02:47:19;;;;;;;9.50;2.17;;;3.30;99.90;;;;;;5097858;28;20615;-74
2022/04/10 02:49:45;;;;;;;11.82;2.15;;;3.40;99.90;;;;;;5097847;28;20130;-74
2022/04/10 02:52:11;;;;;;;12.30;2.40;;;3.40;99.90;;;;;;5098233;28;20058;-74
2022/04/10 02:54:36;;;;;;;9.18;2.08;;;3.30;99.90;;;;;;5114745;28;20196;-74
2022/04/10 02:57:02;;;;;;;7.35;1.70;;;3.30;99.90;;;;;;5114809;28;20047;-74
2022/04/10 02:59:28;;;;;;;8.38;2.00;;;3.30;99.90;;;;;;5097898;28;20043;-73
2022/04/10 03:01:53;;;;;;;7.45;1.77;;;3.40;99.90;;;;;;5114449;28;20043;-74
2022/04/10 03:04:19;;;;;;;11.73;1.70;;;3.40;99.90;;;;;;5098055;28;20402;-74
2022/04/10 03:06:45;;;;;;;8.63;1.75;;;3.40;99.90;;;;;;5114522;28;20543;-74
2022/04/10 03:09:10;;;;;;;9.80;1.73;;;3.40;99.90;;;;;;5114891;28;20078;-74
2022/04/10 03:11:36;;;;;;;6.38;1.55;;;3.50;99.90;;;;;;5114451;28;20046;-74
2022/04/10 03:14:02;;;;;;;9.27;2.17;;;3.60;99.90;;;;;;5083024;27;20050;-74
2022/04/10 03:16:28;;;;;;;7.05;1.80;;;3.50;99.90;;;;;;5118587;27;20050;-73
2022/04/10 03:18:53;;;;;;;8.48;2.13;;;3.60;99.90;;;;;;5136099;27;20047;-73
2022/04/10 03:21:19;;;;;;;10.27;1.90;;;3.60;99.90;;;;;;5136627;27;20043;-73
2022/04/10 03:23:45;;;;;;;9.18;1.60;;;3.70;99.90;;;;;;5117679;27;20091;-74
2022/04/10 03:26:10;;;;;;;11.88;1.80;;;3.70;99.90;;;;;;5118241;27;20047;-73
2022/04/10 03:28:36;;;;;;;9.90;2.10;;;3.60;99.90;;;;;;5100843;27;20050;-74
2022/04/10 03:31:02;;;;;;;10.38;2.33;;;3.50;99.90;;;;;;5117813;27;20487;-74
2022/04/10 03:33:27;;;;;;;13.23;2.40;;;3.50;99.90;;;;;;5118078;27;20043;-74
2022/04/10 03:35:53;;;;;;;9.80;2.15;;;3.50;99.90;;;;;;5100789;27;20391;-73
2022/04/10 03:38:19;;;;;;;9.43;1.45;;;3.50;99.90;;;;;;5118005;27;20039;-74
2022/04/10 03:40:45;;;;;;;6.10;1.50;;;3.70;99.90;;;;;;5117296;27;20051;-74
2022/04/10 03:43:12;;;;;;;5.30;0.98;;;3.50;99.90;;;;;;5101289;27;20059;-73
2022/04/10 03:45:38;;;;;;;3.78;0.98;;;3.50;99.90;;;;;;5117491;27;20176;-74
2022/04/10 03:48:05;;;;;;;2.90;0.77;;;3.40;99.90;;;;;;5100917;27;20042;-74
2022/04/10 03:50:30;;;;;;;8.02;1.27;;;3.40;99.90;;;;;;5101102;27;20054;-74
2022/04/10 03:52:56;;;;;;;2.42;0.63;;;3.40;99.90;;;;;;5100514;27;20051;-73
2022/04/10 03:55:22;;;;;;;2.78;0.70;;;3.40;99.90;;;;;;5117746;27;20050;-74
2022/04/10 03:57:47;;;;;;;5.28;0.88;;;3.40;99.90;;;;;;5083431;27;20055;-74
2022/04/10 04:00:13;;;;;;;2.60;0.85;;;3.50;99.90;;;;;;5117699;27;20127;-74
2022/04/10 04:02:43;;;;;;;3.22;0.80;;;3.40;99.90;;;;;;5117200;27;20040;-74
2022/04/10 04:05:09;;;;;;;4.55;0.77;;;3.40;99.90;;;;;;5117336;27;20058;-74
2022/04/10 04:07:35;;;;;;;3.45;0.80;;;3.60;99.90;;;;;;5135593;27;20043;-74
2022/04/10 04:10:02;;;;;;;4.13;0.93;;;3.40;99.90;;;;;;5099943;27;20047;-74
2022/04/10 04:12:27;;;;;;;4.50;0.63;;;3.50;99.90;;;;;;5117408;27;20051;-74
2022/04/10 04:14:53;;;;;;;5.57;0.88;;;3.40;99.90;;;;;;5116631;27;20035;-74
2022/04/10 04:17:19;;;;;;;1.85;0.70;;;3.40;99.90;;;;;;5100348;27;20039;-74
2022/04/10 04:19:46;;;;;;;3.85;0.82;;;3.40;99.90;;;;;;5135318;27;20084;-74
2022/04/10 04:22:12;;;;;;;2.55;0.80;;;3.50;99.90;;;;;;5116900;27;20055;-74
2022/04/10 04:24:37;;;;;;;4.60;1.10;;;3.30;99.90;;;;;;5134930;27;20039;-74
2022/04/10 04:27:03;;;;;;;3.13;1.00;;;3.30;99.90;;;;;;5099769;27;20084;-74
2022/04/10 04:29:29;;;;;;;3.28;0.93;;;3.40;99.90;;;;;;5116927;27;20035;-74
2022/04/10 04:31:54;;;;;;;2.97;0.90;;;3.40;99.90;;;;;;5134829;27;20540;-73
2022/04/10 04:34:21;;;;;;;5.57;1.17;;;3.30;99.90;;;;;;5100090;27;20051;-74
2022/04/10 04:36:47;;;;;;;3.70;1.00;;;3.20;99.90;;;;;;5116309;27;20398;-74
2022/04/10 04:39:12;;;;;;;4.03;1.10;;;3.20;99.90;;;;;;5099366;27;20059;-74
2022/04/10 04:41:38;;;;;;;5.60;1.08;;;3.20;99.90;;;;;;5099904;27;20097;-74
2022/04/10 04:44:04;;;;;;;4.45;0.98;;;3.20;99.90;;;;;;5099092;27;20391;-74
2022/04/10 04:46:30;;;;;;;4.72;1.08;;;3.10;99.90;;;;;;5116765;27;20044;-74
2022/04/10 04:48:55;;;;;;;5.35;1.30;;;3.10;99.90;;;;;;5099100;27;20042;-74
2022/04/10 04:51:21;;;;;;;6.40;1.25;;;3.00;99.90;;;;;;5116682;27;20047;-74
2022/04/10 04:53:47;;;;;;;5.28;0.80;;;3.00;99.90;;;;;;5099211;27;20043;-74
2022/04/10 04:56:13;;;;;;;6.20;1.00;;;3.00;99.90;;;;;;5099697;27;20058;-74
2022/04/10 04:58:38;;;;;;;4.53;0.85;;;3.00;99.90;;;;;;5082465;27;20386;-73
2022/04/10 05:01:04;;;;;;;5.32;1.00;;;3.00;99.90;;;;;;5115838;27;20500;-74
2022/04/10 05:03:30;;;;;;;3.70;1.00;;;3.00;99.90;;;;;;5082332;27;20058;-74
2022/04/10 05:05:55;;;;;;;5.05;1.17;;;3.00;99.90;;;;;;5115809;27;20043;-74
2022/04/10 05:08:21;;;;;;;6.20;1.30;;;3.00;99.90;;;;;;5116202;27;20475;-74
2022/04/10 05:10:47;;;;;;;8.43;1.30;;;3.10;99.90;;;;;;5115623;27;20103;-75
2022/04/10 05:13:12;;;;;;;7.35;1.20;;;3.10;99.90;;;;;;5134374;27;20402;-73
2022/04/10 05:15:38;;;;;;;6.35;1.40;;;3.20;99.90;;;;;;5099266;27;20122;-74
2022/04/10 05:18:04;;;;;;;7.72;1.50;;;3.20;99.90;;;;;;5098520;27;20039;-74
2022/04/10 05:20:30;;;;;;;7.50;1.10;;;3.20;99.90;;;;;;5116048;27;20042;-74
2022/04/10 05:22:56;;;;;;;5.95;1.60;;;3.30;99.90;;;;;;5098585;27;20128;-74
2022/04/10 05:25:22;;;;;;;6.75;1.45;;;3.30;99.90;;;;;;5081954;27;20074;-74
2022/04/10 05:27:48;;;;;;;7.38;1.40;;;3.40;99.90;;;;;;5099067;27;20055;-73
2022/04/10 05:30:14;;;;;;;6.10;1.30;;;3.40;99.90;;;;;;5098900;27;20145;-73
2022/04/10 05:32:42;;;;;;;6.15;1.60;;;3.40;99.90;;;;;;5098703;27;20083;-75
2022/04/10 05:35:12;;;;;;;3.97;1.30;;;3.50;99.90;;;;;;5081706;27;20047;-78
2022/04/10 05:37:37;;;;;;;5.63;2.00;;;3.40;99.90;;;;;;5081411;27;20089;-75
2022/04/10 05:40:03;;;;;;;6.30;2.53;;;3.40;99.90;;;;;;5133246;27;20094;-75
2022/04/10 05:42:29;;;;;;;5.70;1.52;;;3.40;99.90;;;;;;5115143;27;20535;-75
2022/04/10 05:45:01;;;;;;;3.30;1.38;;;3.40;99.90;;;;;;5133558;27;20131;-75
2022/04/10 05:47:27;;;;;;;5.80;1.50;;;3.40;99.90;;;;;;5098560;27;20551;-74
2022/04/10 05:49:53;;;;;;;5.63;1.90;;;3.50;99.90;;;;;;5098093;27;20126;-76
2022/04/10 05:52:18;;;;;;;8.05;1.83;;;3.50;99.90;;;;;;5115361;27;20043;-75
2022/04/10 05:54:44;;;;;;;5.57;1.70;;;3.60;99.90;;;;;;5133680;27;20039;-75
2022/04/10 05:57:10;;;;;;;6.75;1.48;;;3.70;99.90;;;;;;5133177;27;20395;-75
2022/04/10 05:59:35;;;;;;;5.90;1.67;;;3.70;99.90;;;;;;5115289;28;20043;-75
2022/04/10 06:02:01;;;;;;;4.97;1.38;;;3.70;99.90;;;;;;5133094;28;20526;-75
2022/04/10 06:04:26;;;;;;;6.13;1.52;;;3.80;99.90;;;;;;5133649;28;20043;-75
2022/04/10 06:06:52;;;;;;;6.95;1.52;;;3.70;99.90;;;;;;5133579;28;20475;-75
2022/04/10 06:09:18;;;;;;;8.13;1.20;;;3.80;99.90;;;;;;5115034;28;20070;-75
2022/04/10 06:11:43;;;;;;;7.85;1.50;;;3.70;99.90;;;;;;5098483;28;20391;-75
2022/04/10 06:14:09;;;;;;;7.13;1.58;;;3.70;99.90;;;;;;5114810;28;20050;-75
2022/04/10 06:16:35;;;;;;;4.93;1.55;;;3.70;99.90;;;;;;5115177;28;20043;-74
2022/04/10 06:19:00;;;;;;;7.47;1.38;;;3.70;99.90;;;;;;5132843;28;20031;-75
2022/04/10 06:21:26;;;;;;;6.65;1.67;;;3.70;99.90;;;;;;5098361;28;20092;-76
2022/04/10 06:23:52;;;;;;;5.25;1.17;;;3.80;99.90;;;;;;5080786;28;20059;-75
2022/04/10 06:26:17;;;;;;;8.38;2.10;;;3.80;99.90;;;;;;5132856;28;20082;-74
2022/04/10 06:28:43;;;;;;;6.15;1.38;;;3.90;99.90;;;;;;5114970;28;20078;-74
2022/04/10 06:31:12;;;;;;;4.05;1.35;;;3.80;99.90;;;;;;5097901;28;20043;-75
2022/04/10 06:33:43;;;;;;;8.60;1.95;;;3.80;99.90;;;;;;5083231;28;20054;-74
2022/04/10 06:36:10;;;;;;;5.90;1.42;;;3.80;99.90;;;;;;5097576;28;20047;-75
2022/04/10 06:38:38;;;;;;;6.28;1.50;;;4.00;99.90;;;;;;5098025;28;20043;-78
2022/04/10 06:41:05;;;;;;;4.60;1.30;;;4.00;99.90;;;;;;5077182;28;20444;-77
2022/04/10 06:43:34;;;;;;;4.82;1.33;;;4.10;99.90;;;;;;5076598;28;20104;-76
2022/04/10 06:46:00;;;;;;;6.65;1.40;;;4.20;99.90;;;;;;5093976;28;20036;-76
2022/04/10 06:48:35;;;;;;;6.68;1.42;;;4.40;99.90;;;;;;5079346;28;20048;-76
2022/04/10 06:51:07;;;;;;;7.60;1.60;;;4.50;99.90;;;;;;5098639;28;20055;-76
2022/04/10 06:53:36;;;;;;;5.55;1.40;;;4.50;99.90;;;;;;5098853;28;20111;-75
2022/04/10 06:56:01;;;;;;;7.38;1.33;;;4.60;99.90;;;;;;5097861;28;20122;-76
2022/04/10 06:58:27;;;;;;;8.02;2.08;;;4.70;99.90;;;;;;5098019;28;20052;-74
2022/04/10 07:00:53;;;;;;;10.25;2.50;;;4.80;99.90;;;;;;5098145;28;20134;-76
2022/04/10 07:03:19;;;;;;;9.38;3.60;;;4.80;99.90;;;;;;5097669;28;20097;-76
2022/04/10 07:05:45;;;;;;;6.57;3.00;;;4.90;99.90;;;;;;5115224;28;20040;-76
2022/04/10 07:08:10;;;;;;;6.63;1.70;;;4.80;99.90;;;;;;5115902;28;20050;-76
2022/04/10 07:10:39;;;;;;;7.85;2.05;;;4.90;99.90;;;;;;5115308;28;20075;-74
2022/04/10 07:13:04;;;;;;;9.27;5.00;;;5.00;99.90;;;;;;5098093;28;20051;-75
2022/04/10 07:15:30;;;;;;;7.18;2.38;;;5.10;99.90;;;;;;5114910;27;20040;-74
2022/04/10 07:17:56;;;;;;;6.00;1.80;;;5.20;99.90;;;;;;5114864;28;20036;-74
2022/04/10 07:20:25;;;;;;;8.70;1.75;;;5.30;99.90;;;;;;5114133;28;20083;-74
2022/04/10 07:25:35;;;;;;;3.83;1.40;;;5.40;99.90;;;;;;5114587;28;20051;-74
2022/04/10 07:28:01;;;;;;;10.10;2.10;;;5.40;99.90;;;;;;5080787;28;20100;-74
2022/04/10 07:30:27;;;;;;;5.43;1.65;;;5.70;99.90;;;;;;5114254;27;20100;-75
2022/04/10 07:32:53;;;;;;;11.45;1.90;;;5.80;99.90;;;;;;5097605;28;20058;-74
2022/04/10 07:35:19;;;;;;;7.43;2.00;;;6.00;99.90;;;;;;5097632;28;20093;-73
2022/04/10 07:37:46;;;;;;;7.45;1.80;;;6.00;99.90;;;;;;5097788;28;20047;-73
2022/04/10 07:40:11;;;;;;;12.60;1.77;;;6.10;99.90;;;;;;5080150;28;20472;-73
2022/04/10 07:42:39;;;;;;;8.52;2.13;;;6.30;99.90;;;;;;5080891;28;20142;-73
2022/04/10 07:45:05;;;;;;;10.70;2.63;;;6.20;99.90;;;;;;5097741;28;20452;-74
2022/04/10 07:47:31;;;;;;;10.25;3.00;;;6.30;99.90;;;;;;5114277;28;20066;-74
2022/04/10 07:49:57;;;;;;;9.52;2.05;;;6.30;99.90;;;;;;5097575;28;20476;-73
2022/04/10 07:52:23;;;;;;;14.45;2.50;;;6.30;99.90;;;;;;5097185;28;20476;-73
2022/04/10 07:54:49;;;;;;;12.25;2.33;;;6.30;99.90;;;;;;5097325;28;20480;-73
2022/04/10 07:57:16;;;;;;;9.38;2.10;;;6.30;99.90;;;;;;5079676;28;20109;-73
2022/04/10 07:59:42;;;;;;;8.93;1.98;;;6.30;99.90;;;;;;5096030;28;20130;-76
2022/04/10 08:02:08;;;;;;;7.75;1.65;;;6.50;99.90;;;;;;5097038;28;20135;-77
2022/04/10 08:04:33;;;;;;;9.45;1.95;;;6.40;99.90;;;;;;5079646;28;20079;-74
2022/04/10 08:06:59;;;;;;;10.30;2.63;;;6.50;99.90;;;;;;5080266;28;20059;-76
2022/04/10 08:09:25;;;;;;;9.15;2.08;;;6.50;99.90;;;;;;5113693;28;20373;-75
2022/04/10 08:11:50;;;;;;;12.70;2.33;;;6.60;99.90;;;;;;5113733;28;20515;-74
2022/04/10 08:14:16;;;;;;;14.70;2.50;;;6.80;99.90;;;;;;5114570;28;20480;-74
2022/04/10 08:16:42;;;;;;;10.48;2.03;;;6.90;99.90;;;;;;5096490;28;20050;-75
2022/04/10 08:19:08;;;;;;;15.82;5.50;;;7.00;99.90;;;;;;5113725;28;20040;-74
2022/04/10 08:21:33;;;;;;;25.60;6.28;;;7.00;99.90;;;;;;5114064;28;20083;-75
2022/04/10 08:23:59;;;;;;;25.48;10.65;;;7.00;99.90;;;;;;5114452;28;20043;-74
2022/04/10 08:26:25;;;;;;;19.45;7.63;;;7.00;99.90;;;;;;5095967;28;20116;-74
2022/04/10 08:28:50;;;;;;;18.10;4.95;;;7.00;99.90;;;;;;5096619;28;20251;-75
2022/04/10 08:31:16;;;;;;;17.25;7.57;;;6.90;99.90;;;;;;5095908;28;20051;-75
2022/04/10 08:33:42;;;;;;;16.27;5.95;;;6.90;99.90;;;;;;5112946;28;20071;-76
2022/04/10 08:36:08;;;;;;;9.95;2.63;;;6.80;99.90;;;;;;5114752;28;20035;-75
2022/04/10 08:38:34;;;;;;;7.68;1.80;;;6.80;99.90;;;;;;5113101;28;20059;-75
2022/04/10 08:41:00;;;;;;;15.85;2.47;;;6.80;99.90;;;;;;5092742;28;20048;-74
2022/04/10 08:43:26;;;;;;;12.52;1.92;;;7.00;99.90;;;;;;5075826;28;20130;-73
2022/04/10 08:45:52;;;;;;;13.13;2.03;;;7.10;99.90;;;;;;5093919;28;20083;-73
2022/04/10 08:48:18;;;;;;;9.27;1.85;;;7.10;99.90;;;;;;5092433;28;20525;-73
2022/04/10 08:50:44;;;;;;;8.85;1.92;;;7.10;99.90;;;;;;5092655;28;20084;-73
2022/04/10 08:53:09;;;;;;;10.02;1.67;;;7.00;99.90;;;;;;5075999;28;20097;-73
2022/04/10 08:55:35;;;;;;;12.43;1.88;;;6.90;99.90;;;;;;5075277;28;20430;-73
2022/04/10 08:58:04;;;;;;;8.45;1.80;;;7.00;99.90;;;;;;5075647;28;20515;-74
2022/04/10 09:00:30;;;;;;;9.27;1.83;;;7.00;99.90;;;;;;5075199;28;20052;-73
2022/04/10 09:02:55;;;;;;;11.88;2.05;;;7.10;99.90;;;;;;5092660;28;20048;-73
2022/04/10 09:05:22;;;;;;;8.38;2.00;;;7.20;99.90;;;;;;5092101;28;20050;-75
2022/04/10 09:08:11;;;;;;;9.20;1.60;;;7.30;99.90;;;;;;5092634;28;20052;-73
2022/04/10 09:10:56;;;;;;;7.15;1.50;;;7.30;99.90;;;;;;5092144;28;20087;-74
2022/04/10 09:13:29;;;;;;;8.38;1.50;;;7.40;99.90;;;;;;5091896;28;20055;-74
2022/04/10 09:16:14;;;;;;;8.57;1.60;;;7.40;99.90;;;;;;5093419;28;20090;-73
2022/04/10 09:19:08;;;;;;;5.13;1.27;;;7.50;99.90;;;;;;5091874;28;20051;-74
2022/04/10 09:21:35;;;;;;;15.18;2.10;;;7.60;99.90;;;;;;5084551;28;20063;-74
2022/04/10 09:24:02;;;;;;;9.63;1.45;;;7.60;99.90;;;;;;5093083;28;20516;-76
2022/04/10 09:26:41;;;;;;;8.68;1.77;;;7.70;99.90;;;;;;5092914;28;20180;-74
2022/04/10 09:29:07;;;;;;;10.48;1.75;;;7.80;99.90;;;;;;5075673;28;20048;-73
2022/04/10 09:31:33;;;;;;;9.63;1.95;;;7.80;99.90;;;;;;5091892;28;20388;-74
2022/04/10 09:34:01;;;;;;;8.43;1.80;;;7.80;99.90;;;;;;5075630;28;20132;-74
2022/04/10 09:36:34;;;;;;;8.75;1.70;;;7.80;99.90;;;;;;5074516;28;20129;-74
2022/04/10 09:39:03;;;;;;;9.90;1.50;;;7.90;99.90;;;;;;5093743;27;20072;-75
2022/04/10 09:41:29;;;;;;;9.00;1.50;;;8.00;99.90;;;;;;5133746;27;20467;-74
2022/04/10 09:43:59;;;;;;;10.10;1.90;;;8.00;99.90;;;;;;5115875;27;20043;-74
2022/04/10 09:46:24;;;;;;;7.97;1.50;;;8.00;99.90;;;;;;5115193;28;20047;-74
2022/04/10 09:48:50;;;;;;;9.32;2.00;;;8.00;99.90;;;;;;5098703;27;20148;-74
2022/04/10 09:51:16;;;;;;;9.52;1.52;;;7.80;99.90;;;;;;5098809;27;20515;-74
2022/04/10 09:53:41;;;;;;;9.93;1.73;;;7.70;99.90;;;;;;5133414;27;20078;-74
2022/04/10 09:56:07;;;;;;;7.80;1.60;;;7.60;99.90;;;;;;5115457;27;20055;-74
2022/04/10 09:58:33;;;;;;;8.90;1.92;;;7.60;99.90;;;;;;5098092;27;20043;-74
2022/04/10 10:01:00;;;;;;;9.75;1.67;;;7.60;99.90;;;;;;5098531;28;20051;-74
2022/04/10 10:03:28;;;;;;;7.38;1.63;;;7.50;99.90;;;;;;5098062;28;20039;-75
2022/04/10 10:05:54;;;;;;;6.78;1.42;;;7.50;99.90;;;;;;5115729;28;20050;-73
2022/04/10 10:08:20;;;;;;;11.80;2.60;;;7.60;99.90;;;;;;5098688;28;20047;-74
2022/04/10 10:10:46;;;;;;;8.02;1.70;;;7.80;99.90;;;;;;5115019;28;20054;-74
2022/04/10 10:13:13;;;;;;;7.97;1.65;;;8.00;99.90;;;;;;5115360;28;20139;-74
2022/04/10 10:15:39;;;;;;;8.93;1.80;;;8.10;99.90;;;;;;5115118;28;20054;-74
2022/04/10 10:18:06;;;;;;;5.43;1.33;;;8.00;99.90;;;;;;5115297;28;20051;-74
2022/04/10 10:20:32;;;;;;;10.85;1.50;;;8.00;99.90;;;;;;5098214;28;20051;-74
2022/04/10 10:23:03;;;;;;;6.47;1.30;;;7.90;99.90;;;;;;5100762;27;20497;-73
2022/04/10 10:25:52;;;;;;;9.15;1.65;;;8.00;99.90;;;;;;5102582;27;20055;-74
2022/04/10 10:28:44;;;;;;;9.32;1.75;;;8.30;99.90;;;;;;5099140;27;20047;-74
2022/04/10 10:31:47;;;;;;;6.95;1.42;;;8.40;99.90;;;;;;5086863;27;20043;-74
2022/04/10 10:34:13;;;;;;;9.10;1.60;;;8.50;99.90;;;;;;5119105;27;20053;-74
2022/04/10 10:36:39;;;;;;;8.38;1.30;;;8.50;99.90;;;;;;5137108;27;20035;-74
2022/04/10 10:39:05;;;;;;;9.05;1.30;;;8.40;99.90;;;;;;5118996;27;20502;-74
2022/04/10 10:41:32;;;;;;;7.70;1.50;;;8.30;99.90;;;;;;5118850;27;20058;-75
2022/04/10 10:43:58;;;;;;;7.85;1.50;;;8.20;99.90;;;;;;5102453;27;20454;-74
2022/04/10 10:46:37;;;;;;;6.72;1.42;;;8.20;99.90;;;;;;5137324;27;20047;-74
2022/04/10 10:49:11;;;;;;;8.65;1.50;;;8.20;99.70;;;;;;5086619;27;20046;-74
2022/04/10 10:51:38;;;;;;;6.88;1.45;;;8.30;99.90;;;;;;5118513;27;20554;-74
2022/04/10 10:54:10;;;;;;;10.77;2.13;;;8.40;99.90;;;;;;5119043;27;20055;-74
2022/04/10 10:56:46;;;;;;;8.45;1.60;;;8.50;99.90;;;;;;5102377;27;20050;-74
2022/04/10 10:59:39;;;;;;;6.38;1.52;;;8.60;99.90;;;;;;5118990;27;20043;-74
2022/04/10 11:02:12;;;;;;;7.47;1.55;;;8.50;99.90;;;;;;5136943;27;20051;-74
2022/04/10 11:04:50;;;;;;;5.93;1.60;;;8.50;99.90;;;;;;5118171;27;20051;-74
2022/04/10 11:07:19;;;;;;;7.78;1.80;;;8.70;99.90;;;;;;5118693;27;20039;-74
2022/04/10 11:09:48;;;;;;;7.97;1.55;;;8.70;99.90;;;;;;5136134;27;20537;-74
2022/04/10 11:12:13;;;;;;;7.75;1.60;;;8.80;99.90;;;;;;5136616;27;20525;-74
2022/04/10 11:14:40;;;;;;;7.13;1.70;;;8.90;99.90;;;;;;5118176;27;20082;-74
2022/04/10 11:17:24;;;;;;;8.43;1.70;;;9.10;99.90;;;;;;5101625;27;20047;-74
2022/04/10 11:20:03;;;;;;;8.63;1.63;;;9.30;99.90;;;;;;5117833;27;20051;-74
2022/04/10 11:22:37;;;;;;;11.38;1.98;;;9.30;99.80;;;;;;5136774;27;20051;-74
2022/04/10 11:25:08;;;;;;;4.53;1.00;;;9.30;99.90;;;;;;5101758;27;20435;-74
2022/04/10 11:27:58;;;;;;;10.35;1.60;;;9.30;99.40;;;;;;5101592;27;20055;-74
2022/04/10 11:30:31;;;;;;;5.75;1.55;;;9.40;99.90;;;;;;5136539;27;20070;-74
2022/04/10 11:32:57;;;;;;;6.00;1.33;;;9.40;99.40;;;;;;5100769;27;20058;-74
2022/04/10 11:35:32;;;;;;;7.72;1.63;;;9.60;99.50;;;;;;5100270;27;20055;-75
2022/04/10 11:37:59;;;;;;;6.05;1.73;;;9.80;99.60;;;;;;5117472;27;20045;-74
2022/04/10 11:40:29;;;;;;;8.10;1.83;;;9.90;98.10;;;;;;5101021;27;20051;-74
2022/04/10 11:42:56;;;;;;;5.30;1.33;;;9.90;98.70;;;;;;5118199;27;20089;-74
2022/04/10 11:45:22;;;;;;;6.22;1.30;;;9.90;99.20;;;;;;5117990;27;20098;-75
2022/04/10 11:47:48;;;;;;;5.80;1.50;;;10.00;98.70;;;;;;5117545;27;20104;-74
2022/04/10 11:50:14;;;;;;;14.98;1.55;;;9.90;98.00;;;;;;5118097;27;20436;-74
2022/04/10 11:52:41;;;;;;;6.00;1.38;;;9.90;98.50;;;;;;5100561;27;20042;-75
2022/04/10 11:55:08;;;;;;;5.18;1.20;;;10.00;98.80;;;;;;5117903;27;20038;-75
2022/04/10 11:57:37;;;;;;;8.23;1.40;;;9.90;98.30;;;;;;5101043;27;20095;-74
2022/04/10 12:00:09;;;;;;;3.80;1.42;;;9.80;97.50;;;;;;5100050;27;20046;-74
2022/04/10 12:02:35;;;;;;;4.75;1.10;;;9.70;97.90;;;;;;5135955;27;20035;-74
2022/04/10 12:05:01;;;;;;;4.43;1.20;;;9.70;98.20;;;;;;5099928;27;20416;-75
2022/04/10 12:07:26;;;;;;;5.65;1.70;;;9.80;97.90;;;;;;5100756;27;20058;-74
2022/04/10 12:09:52;;;;;;;7.47;1.40;;;9.90;97.10;;;;;;5117241;27;20126;-74
2022/04/10 12:12:30;;;;;;;8.88;1.40;;;10.00;96.30;;;;;;5117403;27;20089;-74
2022/04/10 12:14:56;;;;;;;8.93;1.30;;;10.10;96.50;;;;;;5101147;27;20055;-74
2022/04/10 12:17:22;;;;;;;10.30;1.35;;;10.00;96.70;;;;;;5100404;27;20130;-75
2022/04/10 12:19:53;;;;;;;4.82;1.58;;;10.00;96.40;;;;;;5116548;27;20082;-75
2022/04/10 12:22:19;;;;;;;6.35;1.38;;;9.90;96.50;;;;;;5100949;27;20098;-75
2022/04/10 12:24:45;;;;;;;6.78;1.48;;;10.00;95.90;;;;;;5116847;27;20050;-75
2022/04/10 12:27:11;;;;;;;5.80;1.08;;;10.10;95.70;;;;;;5134993;27;20059;-75
2022/04/10 12:29:36;;;;;;;5.07;0.90;;;10.30;95.60;;;;;;5100272;27;20055;-75
2022/04/10 12:32:02;;;;;;;4.57;1.13;;;10.40;94.80;;;;;;5134828;27;20039;-76
2022/04/10 12:34:32;;;;;;;5.95;1.30;;;10.40;93.70;;;;;;5116886;27;20047;-74
2022/04/10 12:37:05;;;;;;;6.55;1.00;;;10.50;94.80;;;;;;5099482;27;20082;-74
2022/04/10 12:39:31;;;;;;;5.65;1.48;;;10.60;93.30;;;;;;5099565;27;20452;-76
2022/04/10 12:42:10;;;;;;;6.80;1.20;;;10.50;93.80;;;;;;5134545;27;20051;-75
2022/04/10 12:44:37;;;;;;;9.35;1.30;;;10.60;93.10;;;;;;5116590;27;20062;-74
2022/04/10 12:47:07;;;;;;;5.30;1.30;;;10.40;94.00;;;;;;5116082;27;20090;-74
2022/04/10 12:49:33;;;;;;;5.63;0.90;;;10.40;94.40;;;;;;5116737;27;20047;-75
2022/04/10 12:52:00;;;;;;;4.85;1.17;;;10.30;94.10;;;;;;5134301;27;20039;-74
2022/04/10 12:54:52;;;;;;;5.57;1.10;;;10.30;94.30;;;;;;5116499;27;20055;-74
2022/04/10 12:57:28;;;;;;;5.75;1.20;;;10.30;94.30;;;;;;5113578;27;20143;-76